»·PEaware :: SWA2291 KLAS-KSNA

SWA2291 :: KLAS-KSNA

FLIGHT INFORMATION

Flight Status: Arrived
Operator:
Southwest Airlines
More flights by this operator :: More flights under this callsign
Pilot: Dave P. (45)
Aircraft: BOEING 737-800
(B738)
More flights by this aircraft type
Origin: KLAS McCarran Intl
United States
Destination: KSNA John Wayne-Orange Co
United States
More flights between these airports :: More routes between these airports
Route: BOACH8 WHIGG FEYLA DSNEE4
File this flight plan on PilotEdge
Remarks: RMK / SIMBRIEF
Altitude:
(Current/Filed)
28,000ft
Speed:
(Current/Filed)
468kts
Departed: 09-Nov-19 06:55 AM
Arrived: 09-Nov-19 07:34 AM
Distance/Time
Traveled:
197nm/0:39
Distance/Time
To Go:
Arrived

Flight Plot

Page will automatically refresh every two minutes.

Flight plan parsing failed; only flown route is shown


Map Options




Map Legend


Flown Route
Filed Route
Departure Airport
Arrival Airport
Navaid (VOR, NDB)
Fix

Horizontal Profiles

Position Reports

Time Latitude Longitude Heading Altitude Ground
Speed
09-Nov-19 06:27 36.079569 -115.146702 27 2189ft 0kts
09-Nov-19 06:28 36.079569 -115.146702 27 2189ft 0kts
09-Nov-19 06:29 36.079569 -115.146702 27 2189ft 0kts
09-Nov-19 06:30 36.079569 -115.146702 27 2189ft 0kts
09-Nov-19 06:31 36.079569 -115.146702 27 2189ft 0kts
09-Nov-19 06:32 36.079569 -115.146702 27 2189ft 0kts
09-Nov-19 06:33 36.079569 -115.146702 27 2189ft 0kts
09-Nov-19 06:33 36.079569 -115.146702 27 2189ft 0kts
09-Nov-19 06:35 36.079569 -115.146702 27 2189ft 0kts
09-Nov-19 06:36 36.079569 -115.146702 27 2189ft 0kts
09-Nov-19 06:36 36.079569 -115.146702 27 2189ft 0kts
09-Nov-19 06:38 36.079569 -115.146702 27 2189ft 0kts
09-Nov-19 06:38 36.079569 -115.146702 27 2189ft 0kts
09-Nov-19 06:39 36.079569 -115.146702 27 2189ft 0kts
09-Nov-19 06:41 36.079105 -115.146853 341 2189ft 2kts
09-Nov-19 06:41 36.078934 -115.146643 293 2189ft 0kts
09-Nov-19 06:42 36.078934 -115.146643 293 2189ft 0kts
09-Nov-19 06:43 36.078923 -115.146862 255 2189ft 7kts
09-Nov-19 06:44 36.078776 -115.151349 270 2189ft 16kts
09-Nov-19 06:45 36.081619 -115.154991 335 2189ft 22kts
09-Nov-19 06:46 36.086602 -115.157865 340 2189ft 12kts
09-Nov-19 06:47 36.091478 -115.155409 24 2189ft 20kts
09-Nov-19 06:48 36.096926 -115.152268 25 2189ft 13kts
09-Nov-19 06:49 36.097988 -115.152506 292 2189ft 0kts
09-Nov-19 06:50 36.097989 -115.152508 292 2189ft 0kts
09-Nov-19 06:51 36.097989 -115.152509 292 2189ft 0kts
09-Nov-19 06:52 36.098278 -115.153380 289 2189ft 8kts
09-Nov-19 06:53 36.097904 -115.153964 204 2189ft 0kts
09-Nov-19 06:54 36.086400 -115.160553 204 2189ft 144kts
09-Nov-19 06:55 36.043641 -115.185058 204 4570ft 190kts
09-Nov-19 06:56 35.997080 -115.239648 242 6214ft 277kts
09-Nov-19 06:57 35.941479 -115.301998 192 7541ft 292kts
09-Nov-19 06:58 35.860835 -115.314452 179 10877ft 300kts
09-Nov-19 06:59 35.768227 -115.304991 173 12563ft 361kts
09-Nov-19 07:00 35.668558 -115.316404 209 15544ft 382kts
09-Nov-19 07:01 35.591631 -115.411134 225 18263ft 401kts
09-Nov-19 07:02 35.514775 -115.514430 224 20679ft 416kts
09-Nov-19 07:03 35.435505 -115.621311 224 22824ft 431kts
09-Nov-19 07:04 35.353568 -115.731823 224 24790ft 443kts
09-Nov-19 07:05 35.269258 -115.844594 224 26612ft 453kts
09-Nov-19 07:06 35.183187 -115.956955 222 28206ft 454kts
09-Nov-19 07:07 35.095232 -116.067205 224 28225ft 447kts
09-Nov-19 07:08 35.009658 -116.175070 224 28229ft 443kts
09-Nov-19 07:09 34.923718 -116.282481 224 28242ft 441kts
09-Nov-19 07:10 34.840376 -116.388007 224 28242ft 424kts
09-Nov-19 07:11 34.760242 -116.489751 224 26838ft 410kts
09-Nov-19 07:12 34.681163 -116.587605 219 25229ft 403kts
09-Nov-19 07:13 34.593092 -116.673001 216 23157ft 400kts
09-Nov-19 07:14 34.507631 -116.756231 217 21325ft 389kts
09-Nov-19 07:15 34.430017 -116.845661 222 19521ft 379kts
09-Nov-19 07:16 34.354826 -116.932876 222 17777ft 369kts
09-Nov-19 07:17 34.281370 -117.017447 221 16085ft 360kts
09-Nov-19 07:18 34.199091 -117.082676 209 14418ft 351kts
09-Nov-19 07:19 34.112783 -117.134516 202 12800ft 343kts
09-Nov-19 07:20 34.027139 -117.179782 203 11947ft 327kts
09-Nov-19 07:21 33.960418 -117.245854 229 10989ft 309kts
09-Nov-19 07:22 33.905229 -117.324473 229 9836ft 300kts
09-Nov-19 07:23 33.852349 -117.399071 229 8538ft 287kts
09-Nov-19 07:24 33.808623 -117.475235 247 7578ft 263kts
09-Nov-19 07:25 33.803654 -117.552852 291 7175ft 218kts
09-Nov-19 07:26 33.824827 -117.616543 292 5916ft 201kts
09-Nov-19 07:27 33.845387 -117.678124 292 4304ft 195kts
09-Nov-19 07:28 33.840323 -117.740065 252 3484ft 191kts
09-Nov-19 07:29 33.805202 -117.786532 209 2753ft 196kts
09-Nov-19 07:30 33.758766 -117.816147 208 1736ft 176kts
09-Nov-19 07:31 33.719117 -117.841312 207 885ft 150kts
09-Nov-19 07:32 33.682772 -117.864368 208 110ft 146kts
09-Nov-19 07:33 33.669126 -117.871513 112 64ft 0kts
09-Nov-19 07:34 33.669373 -117.870646 41 64ft 16kts
09-Nov-19 07:35 33.673705 -117.866733 28 64ft 15kts
09-Nov-19 07:36 33.675364 -117.864913 118 64ft 0kts
09-Nov-19 07:37 33.675339 -117.864858 118 64ft 0kts
09-Nov-19 07:38 33.675339 -117.864858 118 64ft 0kts
09-Nov-19 07:39 33.675339 -117.864858 118 64ft 0kts
09-Nov-19 07:40 33.675339 -117.864858 118 64ft 0kts
09-Nov-19 07:41 33.675339 -117.864858 118 64ft 0kts
09-Nov-19 07:42 33.675339 -117.864858 118 64ft 0kts
09-Nov-19 07:43 33.675339 -117.864858 118 64ft 0kts
09-Nov-19 07:44 33.675339 -117.864858 118 64ft 0kts
09-Nov-19 07:45 33.675339 -117.864858 118 64ft 0kts
09-Nov-19 07:46 33.675339 -117.864858 118 64ft 0kts
09-Nov-19 07:47 33.675339 -117.864858 118 64ft 0kts

Navigation Log

Ident Type
Flight plan parsing failed, navigation log unavailable